createdAt,value
2017-11-20T00:02:03.048Z,4.40
2017-11-20T00:04:29.263Z,4.40
2017-11-20T00:06:56.002Z,4.40
2017-11-20T00:09:22.482Z,4.40
2017-11-20T00:11:49.988Z,4.40
2017-11-20T00:14:16.447Z,4.50
2017-11-20T00:16:43.594Z,4.40
2017-11-20T00:19:10.307Z,4.40
2017-11-20T00:21:37.831Z,4.40
2017-11-20T00:24:04.596Z,4.30
2017-11-20T00:26:31.810Z,4.40
2017-11-20T00:28:58.330Z,4.40
2017-11-20T00:31:25.083Z,4.30
2017-11-20T00:33:51.325Z,4.30
2017-11-20T00:36:18.473Z,4.30
2017-11-20T00:38:46.424Z,4.20
2017-11-20T00:41:13.428Z,4.20
2017-11-20T00:43:40.759Z,4.10
2017-11-20T00:46:08.157Z,4.00
2017-11-20T00:48:35.502Z,4.00
2017-11-20T00:51:01.764Z,4.00
2017-11-20T00:53:29.647Z,4.00
2017-11-20T00:55:56.192Z,4.10
2017-11-20T00:58:24.172Z,4.10
2017-11-20T01:00:51.169Z,4.10
2017-11-20T01:03:17.676Z,4.10
2017-11-20T01:05:43.869Z,4.10
2017-11-20T01:08:11.145Z,4.20
2017-11-20T01:10:37.607Z,4.20
2017-11-20T01:13:04.571Z,4.20
2017-11-20T01:15:32.579Z,4.20
2017-11-20T01:17:59.540Z,4.30
2017-11-20T01:20:26.125Z,4.30
2017-11-20T01:22:53.111Z,4.30
2017-11-20T01:25:19.564Z,4.30
2017-11-20T01:27:46.415Z,4.20
2017-11-20T01:30:13.236Z,4.30
2017-11-20T01:32:39.443Z,4.30
2017-11-20T01:35:07.439Z,4.30
2017-11-20T01:37:33.728Z,4.30
2017-11-20T01:40:00.830Z,4.40
2017-11-20T01:42:28.820Z,4.50
2017-11-20T01:44:56.308Z,4.40
2017-11-20T01:47:24.729Z,4.40
2017-11-20T01:49:50.959Z,4.40
2017-11-20T01:52:17.178Z,4.40
2017-11-20T01:54:43.652Z,4.30
2017-11-20T01:59:43.222Z,4.40
2017-11-20T02:02:10.831Z,4.50
2017-11-20T02:04:37.111Z,4.50
2017-11-20T02:07:04.251Z,4.50
2017-11-20T02:09:32.324Z,4.50
2017-11-20T02:11:58.693Z,4.50
2017-11-20T02:14:24.929Z,4.50
2017-11-20T02:16:51.181Z,4.50
2017-11-20T02:19:18.044Z,4.40
2017-11-20T02:21:46.546Z,4.40
2017-11-20T02:24:14.257Z,4.40
2017-11-20T02:26:41.870Z,4.40
2017-11-20T02:29:08.151Z,4.50
2017-11-20T02:31:34.426Z,4.40
2017-11-20T02:34:00.690Z,4.40
2017-11-20T02:36:27.345Z,4.40
2017-11-20T02:38:54.956Z,4.50
2017-11-20T02:41:21.226Z,4.60
2017-11-20T02:43:47.601Z,4.50
2017-11-20T02:46:14.396Z,4.40
2017-11-20T02:48:41.980Z,4.50
2017-11-20T02:51:08.497Z,4.50
2017-11-20T02:53:35.038Z,4.50
2017-11-20T02:56:03.369Z,4.50
2017-11-20T02:58:30.566Z,4.60
2017-11-20T03:00:57.077Z,4.60
2017-11-20T03:03:23.345Z,4.60
2017-11-20T03:05:50.740Z,4.50
2017-11-20T03:08:17.811Z,4.50
2017-11-20T03:10:44.982Z,4.50
2017-11-20T03:13:12.246Z,4.60
2017-11-20T03:15:40.031Z,4.60
2017-11-20T03:18:06.274Z,4.50
2017-11-20T03:20:33.121Z,4.60
2017-11-20T03:23:00.002Z,4.60
2017-11-20T03:25:27.025Z,4.50
2017-11-20T03:27:53.316Z,4.50
2017-11-20T03:30:20.412Z,4.50
2017-11-20T03:32:50.879Z,4.50
2017-11-20T03:35:17.152Z,4.50
2017-11-20T03:37:44.428Z,4.60
2017-11-20T03:40:11.178Z,4.60
2017-11-20T03:42:38.120Z,4.50
2017-11-20T03:45:05.740Z,4.50
2017-11-20T03:47:32.434Z,4.50
2017-11-20T03:49:59.777Z,4.60
2017-11-20T03:52:26.817Z,4.60
2017-11-20T03:54:53.613Z,4.50
2017-11-20T03:57:19.835Z,4.50
2017-11-20T03:59:46.644Z,4.50
2017-11-20T04:02:12.910Z,4.50
2017-11-20T04:04:39.766Z,4.50
2017-11-20T04:07:07.667Z,4.50
2017-11-20T04:09:35.966Z,4.50
2017-11-20T04:12:03.323Z,4.50
2017-11-20T04:14:30.581Z,4.50
2017-11-20T04:16:57.799Z,4.60
2017-11-20T04:19:25.144Z,4.50
2017-11-20T04:21:52.764Z,4.60
2017-11-20T04:24:19.063Z,4.60
2017-11-20T04:26:46.855Z,4.50
2017-11-20T04:29:14.215Z,4.50
2017-11-20T04:31:41.638Z,4.50
2017-11-20T04:34:08.653Z,4.60
2017-11-20T04:36:36.070Z,4.50
2017-11-20T04:39:02.472Z,4.60
2017-11-20T04:41:30.137Z,4.60
2017-11-20T04:43:57.739Z,4.50
2017-11-20T04:46:24.492Z,4.50
2017-11-20T04:48:50.985Z,4.50
2017-11-20T04:51:18.571Z,4.60
2017-11-20T04:53:45.813Z,4.60
2017-11-20T04:56:12.829Z,4.60
2017-11-20T04:58:40.137Z,4.50
2017-11-20T05:01:08.396Z,4.60
2017-11-20T05:03:34.631Z,4.60
2017-11-20T05:06:01.547Z,4.50
2017-11-20T05:08:28.167Z,4.60
2017-11-20T05:10:55.293Z,4.60
2017-11-20T05:13:22.847Z,4.60
2017-11-20T05:15:50.641Z,4.60
2017-11-20T05:18:17.601Z,4.60
2017-11-20T05:20:43.829Z,4.60
2017-11-20T05:23:10.070Z,4.50
2017-11-20T05:25:36.274Z,4.60
2017-11-20T05:28:03.776Z,4.60
2017-11-20T05:30:30.017Z,4.60
2017-11-20T05:32:57.062Z,4.50
2017-11-20T05:35:23.307Z,4.50
2017-11-20T05:37:50.044Z,4.50
2017-11-20T05:40:17.092Z,4.50
2017-11-20T05:42:44.502Z,4.50
2017-11-20T05:45:11.221Z,4.40
2017-11-20T05:47:38.759Z,4.40
2017-11-20T05:50:06.004Z,4.30
2017-11-20T05:52:33.096Z,4.30
2017-11-20T05:54:59.721Z,4.30
2017-11-20T05:57:26.763Z,4.40
2017-11-20T05:59:53.812Z,4.40
2017-11-20T06:02:20.839Z,4.40
2017-11-20T06:04:47.791Z,4.40
2017-11-20T06:07:15.509Z,4.30
2017-11-20T06:09:42.521Z,4.30
2017-11-20T06:12:09.239Z,4.30
2017-11-20T06:14:36.217Z,4.30
2017-11-20T06:17:02.431Z,4.30
2017-11-20T06:19:29.010Z,4.30
2017-11-20T06:21:56.413Z,4.20
2017-11-20T06:24:22.793Z,4.20
2017-11-20T06:26:49.693Z,4.20
2017-11-20T06:29:16.019Z,4.20
2017-11-20T06:31:43.006Z,4.30
2017-11-20T06:34:09.793Z,4.30
2017-11-20T06:36:36.600Z,4.30
2017-11-20T06:39:04.118Z,4.30
2017-11-20T06:41:30.415Z,4.20
2017-11-20T06:43:57.371Z,4.20
2017-11-20T06:46:24.991Z,4.20
2017-11-20T06:48:51.589Z,4.20
2017-11-20T06:51:18.659Z,4.10
2017-11-20T06:53:45.350Z,4.10
2017-11-20T06:56:12.852Z,4.10
2017-11-20T06:58:39.073Z,4.10
2017-11-20T07:01:05.869Z,4.10
2017-11-20T07:03:32.909Z,4.20
2017-11-20T07:06:00.184Z,4.20
2017-11-20T07:08:26.944Z,4.20
2017-11-20T07:10:53.179Z,4.30
2017-11-20T07:13:19.497Z,4.40
2017-11-20T07:15:46.843Z,4.40
2017-11-20T07:18:13.097Z,4.40
2017-11-20T07:20:39.326Z,4.40
2017-11-20T07:23:05.627Z,4.40
2017-11-20T07:25:53.806Z,4.40
2017-11-20T07:28:32.954Z,4.40
2017-11-20T07:34:17.965Z,4.40
2017-11-20T07:37:08.913Z,4.40
2017-11-20T07:39:35.311Z,4.40
2017-11-20T07:42:02.357Z,4.40
2017-11-20T07:44:29.872Z,4.40
2017-11-20T07:46:56.073Z,4.40
2017-11-20T07:49:22.418Z,4.40
2017-11-20T07:51:49.018Z,4.40
2017-11-20T07:54:15.595Z,4.50
2017-11-20T07:56:42.631Z,4.50
2017-11-20T07:59:08.840Z,4.50
2017-11-20T08:01:35.068Z,4.50
2017-11-20T08:04:01.710Z,4.50
2017-11-20T08:06:28.011Z,4.50
2017-11-20T08:08:54.979Z,4.50
2017-11-20T08:11:21.688Z,4.50
2017-11-20T08:13:49.831Z,4.50
2017-11-20T08:16:17.152Z,4.50
2017-11-20T08:18:43.813Z,4.50
2017-11-20T08:21:11.164Z,4.50
2017-11-20T08:23:38.554Z,4.60
2017-11-20T08:26:06.198Z,4.60
2017-11-20T08:28:32.621Z,4.60
2017-11-20T08:31:00.053Z,4.70
2017-11-20T08:33:27.357Z,4.70
2017-11-20T08:35:54.260Z,4.70
2017-11-20T08:38:20.787Z,4.60
2017-11-20T08:40:48.376Z,4.50
2017-11-20T08:43:15.392Z,4.60
2017-11-20T08:45:41.697Z,4.60
2017-11-20T08:48:08.958Z,4.60
2017-11-20T08:50:37.035Z,4.60
2017-11-20T08:53:03.792Z,4.60
2017-11-20T08:55:30.567Z,4.70
2017-11-20T08:57:57.717Z,4.80
2017-11-20T09:00:23.956Z,4.80
2017-11-20T09:02:50.188Z,4.70
2017-11-20T09:05:17.013Z,4.70
2017-11-20T09:07:43.315Z,4.70
2017-11-20T09:10:09.744Z,4.60
2017-11-20T09:12:35.955Z,4.60
2017-11-20T09:15:02.239Z,4.60
2017-11-20T09:17:28.776Z,4.70
2017-11-20T09:19:55.093Z,4.60
2017-11-20T09:22:22.866Z,4.70
2017-11-20T09:24:49.157Z,4.70
2017-11-20T09:27:15.822Z,4.80
2017-11-20T09:29:43.287Z,4.80
2017-11-20T09:32:10.925Z,4.80
2017-11-20T09:34:37.740Z,4.80
2017-11-20T09:37:04.325Z,4.90
2017-11-20T09:39:32.381Z,4.90
2017-11-20T09:41:59.418Z,4.90
2017-11-20T09:44:25.844Z,4.90
2017-11-20T09:46:52.112Z,4.90
2017-11-20T09:49:19.415Z,4.90
2017-11-20T09:51:46.279Z,4.90
2017-11-20T09:54:12.618Z,4.90
2017-11-20T09:56:39.228Z,4.80
2017-11-20T09:59:06.552Z,4.80
2017-11-20T10:01:34.479Z,4.80
2017-11-20T10:04:00.876Z,4.80
2017-11-20T10:06:29.086Z,4.80
2017-11-20T10:08:55.350Z,4.80
2017-11-20T10:11:23.080Z,4.80
2017-11-20T10:13:49.303Z,4.80
2017-11-20T10:16:15.619Z,4.70
2017-11-20T10:18:43.647Z,4.90
2017-11-20T10:21:10.649Z,5.00
2017-11-20T10:23:37.369Z,5.00
2017-11-20T10:26:05.206Z,5.00
2017-11-20T10:28:32.411Z,5.10
2017-11-20T10:30:58.875Z,5.00
2017-11-20T10:33:26.400Z,5.10
2017-11-20T10:35:52.937Z,5.10
2017-11-20T10:38:19.163Z,5.10
2017-11-20T10:40:45.392Z,5.10
2017-11-20T10:43:12.541Z,5.10
2017-11-20T10:45:38.867Z,5.20
2017-11-20T10:48:05.351Z,5.30
2017-11-20T10:50:32.701Z,5.40
2017-11-20T10:53:00.322Z,5.50
2017-11-20T10:55:27.343Z,5.60
2017-11-20T10:57:54.764Z,5.50
2017-11-20T11:00:21.085Z,5.50
2017-11-20T11:02:48.234Z,5.60
2017-11-20T11:05:15.345Z,5.60
2017-11-20T11:07:42.777Z,5.60
2017-11-20T11:10:10.376Z,5.60
2017-11-20T11:12:36.728Z,5.60
2017-11-20T11:15:04.388Z,5.50
2017-11-20T11:17:31.516Z,5.70
2017-11-20T11:19:58.524Z,5.60
2017-11-20T11:22:24.800Z,5.60
2017-11-20T11:24:51.775Z,5.60
2017-11-20T11:27:18.046Z,5.50
2017-11-20T11:29:44.364Z,5.60
2017-11-20T11:32:10.581Z,5.60
2017-11-20T11:34:37.476Z,5.50
2017-11-20T11:37:04.436Z,5.30
2017-11-20T11:39:31.537Z,5.30
2017-11-20T11:41:58.004Z,5.30
2017-11-20T11:44:25.003Z,5.30
2017-11-20T11:46:51.244Z,5.30
2017-11-20T11:49:18.059Z,5.30
2017-11-20T11:51:44.918Z,5.30
2017-11-20T11:54:11.242Z,5.40
2017-11-20T11:56:38.078Z,5.40
2017-11-20T11:59:04.316Z,5.40
2017-11-20T12:01:31.087Z,5.30
2017-11-20T12:03:57.928Z,5.30
2017-11-20T12:06:24.683Z,5.30
2017-11-20T12:08:52.523Z,5.30
2017-11-20T12:11:18.857Z,5.30
2017-11-20T12:13:45.106Z,5.30
2017-11-20T12:16:11.835Z,5.40
2017-11-20T12:18:38.059Z,5.40
2017-11-20T12:21:04.385Z,5.30
2017-11-20T12:23:31.509Z,5.20
2017-11-20T12:25:58.157Z,5.10
2017-11-20T12:28:25.473Z,5.20
2017-11-20T12:30:51.793Z,5.30
2017-11-20T12:33:18.808Z,5.30
2017-11-20T12:35:46.239Z,5.30
2017-11-20T12:38:13.409Z,5.30
2017-11-20T12:40:41.040Z,5.30
2017-11-20T12:43:07.489Z,5.20
2017-11-20T12:45:34.500Z,5.30
2017-11-20T12:48:01.184Z,5.30
2017-11-20T12:50:28.186Z,5.40
2017-11-20T12:52:54.478Z,5.40
2017-11-20T12:55:21.685Z,5.40
2017-11-20T12:57:48.444Z,5.40
2017-11-20T13:00:15.646Z,5.30
2017-11-20T13:02:42.216Z,5.30
2017-11-20T13:05:09.308Z,5.40
2017-11-20T13:07:36.388Z,5.30
2017-11-20T13:10:02.692Z,5.30
2017-11-20T13:12:30.281Z,5.40
2017-11-20T13:14:57.545Z,5.30
2017-11-20T13:17:23.883Z,5.40
2017-11-20T13:19:50.153Z,5.40
2017-11-20T13:22:16.392Z,5.40
2017-11-20T13:24:43.563Z,5.40
2017-11-20T13:27:10.606Z,5.40
2017-11-20T13:29:37.261Z,5.40
2017-11-20T13:32:04.328Z,5.30
2017-11-20T13:34:30.959Z,5.30
2017-11-20T13:36:59.023Z,5.20
2017-11-20T13:39:25.398Z,5.20
2017-11-20T13:41:51.750Z,5.10
2017-11-20T13:44:18.020Z,5.10
2017-11-20T13:46:44.992Z,5.00
2017-11-20T13:49:11.987Z,4.90
2017-11-20T13:51:38.966Z,4.80
2017-11-20T13:54:06.203Z,4.70
2017-11-20T13:56:33.320Z,4.80
2017-11-20T13:58:59.571Z,4.80
2017-11-20T14:01:26.981Z,4.80
2017-11-20T14:03:53.967Z,4.70
2017-11-20T14:06:36.632Z,4.70
2017-11-20T14:09:03.934Z,4.70
2017-11-20T14:11:30.691Z,4.50
2017-11-20T14:13:57.737Z,4.50
2017-11-20T14:16:24.511Z,4.50
2017-11-20T14:18:51.865Z,4.50
2017-11-20T14:21:19.040Z,4.40
2017-11-20T14:23:46.119Z,4.30
2017-11-20T14:26:12.433Z,4.30
2017-11-20T14:28:39.154Z,4.30
2017-11-20T14:31:06.110Z,4.30
2017-11-20T14:33:32.938Z,4.30
2017-11-20T14:35:59.911Z,4.30
2017-11-20T14:38:26.390Z,4.30
2017-11-20T14:40:53.413Z,4.20
2017-11-20T14:43:20.031Z,4.20
2017-11-20T14:45:47.722Z,4.10
2017-11-20T14:48:16.402Z,4.10
2017-11-20T14:50:42.713Z,4.00
2017-11-20T14:53:09.853Z,4.00
2017-11-20T14:55:36.375Z,3.90
2017-11-20T14:58:03.166Z,3.90
2017-11-20T15:00:30.825Z,3.90
2017-11-20T15:02:57.372Z,3.80
2017-11-20T15:05:24.728Z,3.70
2017-11-20T15:07:52.547Z,3.80
2017-11-20T15:10:19.810Z,3.70
2017-11-20T15:12:47.168Z,3.60
2017-11-20T15:15:14.224Z,3.60
2017-11-20T15:17:41.093Z,3.60
2017-11-20T15:20:07.364Z,3.60
2017-11-20T15:22:33.748Z,3.70
2017-11-20T15:25:00.035Z,3.70
2017-11-20T15:27:27.304Z,3.70
2017-11-20T15:29:53.558Z,3.80
2017-11-20T15:32:19.830Z,3.80
2017-11-20T15:34:46.378Z,3.90
2017-11-20T15:37:13.959Z,3.70
2017-11-20T15:39:40.904Z,3.70
2017-11-20T15:42:07.341Z,3.70
2017-11-20T15:44:34.354Z,3.70
2017-11-20T15:47:00.805Z,3.70
2017-11-20T15:49:28.354Z,3.60
2017-11-20T15:51:54.621Z,3.60
2017-11-20T15:54:21.066Z,3.70
2017-11-20T15:56:48.789Z,3.50
2017-11-20T15:59:15.007Z,3.50
2017-11-20T16:01:41.792Z,3.60
2017-11-20T16:04:08.271Z,3.40
2017-11-20T16:06:35.436Z,3.50
2017-11-20T16:09:02.273Z,3.40
2017-11-20T16:11:36.057Z,3.50
2017-11-20T16:14:02.259Z,3.50
2017-11-20T16:16:29.860Z,3.50
2017-11-20T16:18:56.666Z,3.50
2017-11-20T16:21:24.609Z,3.60
2017-11-20T16:23:51.567Z,3.60
2017-11-20T16:26:17.837Z,3.70
2017-11-20T16:28:44.099Z,3.70
2017-11-20T16:31:10.666Z,3.70
2017-11-20T16:33:37.672Z,3.70
2017-11-20T16:36:04.539Z,3.60
2017-11-20T16:38:31.022Z,3.60
2017-11-20T16:40:57.537Z,3.60
2017-11-20T16:43:25.233Z,3.60
2017-11-20T16:45:51.449Z,3.60
2017-11-20T16:48:18.213Z,3.50
2017-11-20T16:50:44.953Z,3.40
2017-11-20T16:53:12.027Z,3.40
2017-11-20T16:55:38.282Z,3.40
2017-11-20T16:58:17.535Z,3.40
2017-11-20T17:00:47.918Z,3.40
2017-11-20T17:03:26.548Z,3.30
2017-11-20T17:05:53.785Z,3.40
2017-11-20T17:08:21.005Z,3.40
2017-11-20T17:10:47.235Z,3.50
2017-11-20T17:13:13.472Z,3.40
2017-11-20T17:15:40.207Z,3.40
2017-11-20T17:18:07.422Z,3.40
2017-11-20T17:20:34.621Z,3.40
2017-11-20T17:23:00.909Z,3.40
2017-11-20T17:25:27.778Z,3.30
2017-11-20T17:27:54.033Z,3.30
2017-11-20T17:30:20.963Z,3.30
2017-11-20T17:32:47.250Z,3.30
2017-11-20T17:35:13.536Z,3.40
2017-11-20T17:37:39.753Z,3.30
2017-11-20T17:40:06.545Z,3.30
2017-11-20T17:42:32.983Z,3.30
2017-11-20T17:44:59.251Z,3.30
2017-11-20T17:47:25.725Z,3.20
2017-11-20T17:49:52.718Z,3.30
2017-11-20T17:52:19.144Z,3.30
2017-11-20T17:54:45.685Z,3.30
2017-11-20T17:57:12.418Z,3.30
2017-11-20T17:59:38.758Z,3.40
2017-11-20T18:02:05.073Z,3.40
2017-11-20T18:04:31.423Z,3.30
2017-11-20T18:06:57.660Z,3.40
2017-11-20T18:09:23.959Z,3.40
2017-11-20T18:11:50.615Z,3.40
2017-11-20T18:14:18.163Z,3.40
2017-11-20T18:16:44.537Z,3.40
2017-11-20T18:19:11.056Z,3.30
2017-11-20T18:21:38.762Z,3.30
2017-11-20T18:24:05.848Z,3.30
2017-11-20T18:26:32.506Z,3.30
2017-11-20T18:28:59.620Z,3.30
2017-11-20T18:31:26.721Z,3.30
2017-11-20T18:33:53.704Z,3.40
2017-11-20T18:36:20.301Z,3.40
2017-11-20T18:38:47.689Z,3.40
2017-11-20T18:41:14.095Z,3.40
2017-11-20T18:43:40.351Z,3.50
2017-11-20T18:46:07.978Z,3.50
2017-11-20T18:48:34.206Z,3.40
2017-11-20T18:51:01.023Z,3.30
2017-11-20T18:53:27.325Z,3.40
2017-11-20T18:55:53.609Z,3.40
2017-11-20T18:58:20.689Z,3.50
2017-11-20T19:00:59.861Z,3.40
2017-11-20T19:03:28.095Z,3.40
2017-11-20T19:06:07.484Z,3.30
2017-11-20T19:08:41.113Z,3.30
2017-11-20T19:11:07.478Z,3.30
2017-11-20T19:13:33.757Z,3.30
2017-11-20T19:16:01.303Z,3.30
2017-11-20T19:18:28.373Z,3.30
2017-11-20T19:20:55.545Z,3.30
2017-11-20T19:23:21.753Z,3.40
2017-11-20T19:25:49.342Z,3.30
2017-11-20T19:28:15.855Z,3.20
2017-11-20T19:30:43.067Z,3.10
2017-11-20T19:33:09.371Z,3.10
2017-11-20T19:35:35.657Z,3.00
2017-11-20T19:38:02.635Z,2.70
2017-11-20T19:40:29.071Z,2.70
2017-11-20T19:42:55.312Z,2.80
2017-11-20T19:45:21.528Z,2.70
2017-11-20T19:47:48.303Z,2.70
2017-11-20T19:50:14.707Z,2.80
2017-11-20T19:52:41.724Z,2.70
2017-11-20T19:55:09.720Z,2.60
2017-11-20T19:57:35.963Z,2.60
2017-11-20T20:00:02.225Z,2.60
2017-11-20T20:02:28.522Z,2.60
2017-11-20T20:04:54.737Z,2.60
2017-11-20T20:07:21.671Z,2.60
2017-11-20T20:09:49.295Z,2.50
2017-11-20T20:12:16.569Z,2.30
2017-11-20T20:15:05.140Z,2.30
2017-11-20T20:17:31.856Z,2.30
2017-11-20T20:19:59.311Z,2.40
2017-11-20T20:22:26.323Z,2.50
2017-11-20T20:24:52.526Z,2.50
2017-11-20T20:27:18.849Z,2.60
2017-11-20T20:29:45.434Z,2.60
2017-11-20T20:32:12.419Z,2.60
2017-11-20T20:34:38.919Z,2.60
2017-11-20T20:37:06.970Z,2.60
2017-11-20T20:39:33.955Z,2.60
2017-11-20T20:42:00.205Z,2.60
2017-11-20T20:44:26.436Z,2.60
2017-11-20T20:46:53.260Z,2.60
2017-11-20T20:49:20.007Z,2.60
2017-11-20T20:51:46.249Z,2.60
2017-11-20T20:54:12.961Z,2.50
2017-11-20T20:56:39.206Z,2.50
2017-11-20T20:59:05.969Z,2.40
2017-11-20T21:01:32.221Z,2.40
2017-11-20T21:03:59.504Z,2.40
2017-11-20T21:06:26.772Z,2.30
2017-11-20T21:08:53.663Z,2.30
2017-11-20T21:11:25.925Z,2.40
2017-11-20T21:13:52.622Z,2.40
2017-11-20T21:16:20.225Z,2.40
2017-11-20T21:18:48.303Z,2.40
2017-11-20T21:21:14.913Z,2.40
2017-11-20T21:23:42.019Z,2.50
2017-11-20T21:26:09.286Z,2.50
2017-11-20T21:28:36.332Z,2.60
2017-11-20T21:31:02.561Z,2.60
2017-11-20T21:33:29.089Z,2.50
2017-11-20T21:35:56.491Z,2.20
2017-11-20T21:38:24.566Z,2.30
2017-11-20T21:40:50.891Z,2.30
2017-11-20T21:43:17.613Z,2.30
2017-11-20T21:45:45.248Z,2.40
2017-11-20T21:48:12.057Z,2.40
2017-11-20T21:50:39.021Z,2.40
2017-11-20T21:53:05.315Z,2.50
2017-11-20T21:55:31.588Z,2.50
2017-11-20T21:57:57.816Z,2.50
2017-11-20T22:00:24.072Z,2.50
2017-11-20T22:02:50.303Z,2.50
2017-11-20T22:05:16.658Z,2.50
2017-11-20T22:07:43.058Z,2.50
2017-11-20T22:10:09.939Z,2.50
2017-11-20T22:12:39.455Z,2.60
2017-11-20T22:15:05.866Z,2.60
2017-11-20T22:17:32.871Z,2.60
2017-11-20T22:19:59.146Z,2.60
2017-11-20T22:22:25.947Z,2.60
2017-11-20T22:24:53.187Z,2.60
2017-11-20T22:27:20.005Z,2.60
2017-11-20T22:29:47.877Z,2.60
2017-11-20T22:34:48.455Z,2.60
2017-11-20T22:37:14.670Z,2.60
2017-11-20T22:39:41.590Z,2.60
2017-11-20T22:42:09.132Z,2.50
2017-11-20T22:44:35.355Z,2.50
2017-11-20T22:47:01.581Z,2.50
2017-11-20T22:49:27.858Z,2.60
2017-11-20T22:51:54.569Z,2.60
2017-11-20T22:54:21.571Z,2.50
2017-11-20T22:56:48.308Z,2.50
2017-11-20T22:59:14.559Z,2.50
2017-11-20T23:01:41.392Z,2.50
2017-11-20T23:04:07.839Z,2.50
2017-11-20T23:06:34.064Z,2.50
2017-11-20T23:09:01.174Z,2.50
2017-11-20T23:11:28.437Z,2.50
2017-11-20T23:13:55.957Z,2.50
2017-11-20T23:16:30.842Z,2.50
2017-11-20T23:18:57.612Z,2.50
2017-11-20T23:21:25.600Z,2.50
2017-11-20T23:23:53.176Z,2.50
2017-11-20T23:26:19.393Z,2.50
2017-11-20T23:28:45.636Z,2.60
2017-11-20T23:31:11.847Z,2.50
2017-11-20T23:33:38.295Z,2.50
2017-11-20T23:36:05.331Z,2.50
2017-11-20T23:38:32.095Z,2.60
2017-11-20T23:40:59.564Z,2.60
2017-11-20T23:43:26.584Z,2.60
2017-11-20T23:45:53.041Z,2.60
2017-11-20T23:48:19.951Z,2.60
2017-11-20T23:50:47.173Z,2.60
2017-11-20T23:53:26.816Z,2.60
2017-11-20T23:55:54.132Z,2.50
2017-11-20T23:58:20.322Z,2.50
